Cash's Hourly Summary for Thursday, March 16, 2017
Hour Temp
(f)
RH
(%)
Solar Rad.
(MJ/m2)
Rainfall
(in)
Wind
(mph)
3/16/2017 12:00 AM 50 65 0 0 5.51
3/16/2017 1:00 AM 49 65 0 0 5.8
3/16/2017 2:00 AM 49 66 0 0 5.67
3/16/2017 3:00 AM 49 71 0 0 4.22
3/16/2017 4:00 AM 50 72 0 0 5.27
3/16/2017 5:00 AM 50 75 0 0 5.19
3/16/2017 6:00 AM 50 83 0 0 5.32
3/16/2017 7:00 AM 52 85 0 0 5.19
3/16/2017 8:00 AM 53 86 0.01 0 3.9
3/16/2017 9:00 AM 54 83 0.09 0 4.67
3/16/2017 10:00 AM 55 81 0.23 0 5.47
3/16/2017 11:00 AM 56 78 0.54 0 6.16
3/16/2017 12:00 PM 58 76 0.46 0 5.09
3/16/2017 1:00 PM 59 76 0.56 0 5.12
3/16/2017 2:00 PM 62 71 1.14 0 6.82
3/16/2017 3:00 PM 66 63 1.49 0 7.04
3/16/2017 4:00 PM 69 59 1.81 0 8.34
3/16/2017 5:00 PM 70 60 0.8 0 8.7
3/16/2017 6:00 PM 70 62 0.69 0 8.9
3/16/2017 7:00 PM 70 61 0.37 0 7.23
3/16/2017 8:00 PM 68 66 0.05 0 5.7
3/16/2017 9:00 PM 67 70 0 0 6.04
3/16/2017 10:00 PM 66 72 0 0 6
3/16/2017 11:00 PM 64 75 0 0 5.32
Data Summary 58 71 8.24 0.00 5.94